createdAt,value
2023-05-05T09:44:59.797Z,39.42
2023-05-05T09:47:36.145Z,38.12
2023-05-05T09:50:02.796Z,39.27
2023-05-05T09:52:30.284Z,39.47
2023-05-05T09:54:57.293Z,37.88
2023-05-05T09:57:27.772Z,36.03
2023-05-05T09:59:54.600Z,36.12
2023-05-05T10:02:21.082Z,37.71
2023-05-05T10:04:47.646Z,40.13
2023-05-05T10:07:22.702Z,41.53
2023-05-05T10:09:49.045Z,41.51
2023-05-05T10:12:15.442Z,41.99
2023-05-05T10:14:42.498Z,42.64
2023-05-05T10:17:10.142Z,43.92
2023-05-05T10:19:37.348Z,43.43
2023-05-05T10:22:08.350Z,43.53
2023-05-05T10:24:40.299Z,42.55
2023-05-05T10:27:19.179Z,43.49
2023-05-05T10:29:46.121Z,42.48
2023-05-05T10:32:51.126Z,42.57
2023-05-05T10:35:09.999Z,41.52
2023-05-05T10:37:38.175Z,38.50
2023-05-05T10:40:05.883Z,39.88
2023-05-05T10:42:32.540Z,40.61
2023-05-05T10:44:59.092Z,39.68
2023-05-05T10:47:27.949Z,41.08
2023-05-05T10:50:02.564Z,40.04
2023-05-05T10:52:42.577Z,41.21
2023-05-05T10:55:27.659Z,40.91
2023-05-05T10:57:54.210Z,41.47
2023-05-05T11:00:41.122Z,41.35
2023-05-05T11:03:16.916Z,41.78
2023-05-05T11:06:08.315Z,41.79
2023-05-05T11:08:43.634Z,41.31
2023-05-05T11:11:11.840Z,41.54
2023-05-05T11:13:40.033Z,42.12
2023-05-05T11:16:26.879Z,40.84
2023-05-05T11:18:53.485Z,41.84
2023-05-05T11:21:20.120Z,42.50
2023-05-05T11:23:52.946Z,43.20
2023-05-05T11:26:48.881Z,42.05
2023-05-05T11:29:15.377Z,41.57
2023-05-05T11:31:41.914Z,41.55
2023-05-05T11:34:28.278Z,41.45
2023-05-05T11:37:02.397Z,41.31
2023-05-05T11:39:40.676Z,41.77
2023-05-05T11:42:24.582Z,42.28
2023-05-05T11:44:51.759Z,41.71
2023-05-05T11:47:18.210Z,41.34
2023-05-05T11:49:44.747Z,40.81
2023-05-05T11:52:14.038Z,41.64
2023-05-05T11:54:50.174Z,41.45
2023-05-05T11:57:26.763Z,40.62
2023-05-05T12:00:05.205Z,40.89
2023-05-05T12:02:32.220Z,39.94
2023-05-05T12:05:00.112Z,38.87
2023-05-05T12:07:29.182Z,39.76
2023-05-05T12:09:56.302Z,40.13
2023-05-05T12:12:35.544Z,39.64
2023-05-05T12:15:02.142Z,40.08
2023-05-05T12:17:37.620Z,40.70
2023-05-05T12:20:04.516Z,41.38
2023-05-05T12:22:31.048Z,42.19
2023-05-05T12:25:03.854Z,41.89
2023-05-05T12:27:30.851Z,41.00
2023-05-05T12:30:11.626Z,40.89
2023-05-05T12:32:38.219Z,40.06
2023-05-05T12:35:06.588Z,40.93
2023-05-05T12:37:33.266Z,40.99
2023-05-05T12:39:59.806Z,40.78
2023-05-05T12:42:26.402Z,41.04
2023-05-05T12:44:52.969Z,40.99
2023-05-05T12:47:33.279Z,40.40
2023-05-05T12:50:00.448Z,39.64
2023-05-05T12:52:44.240Z,37.52
2023-05-05T12:55:11.693Z,35.85
2023-05-05T12:57:39.339Z,34.83
2023-05-05T13:00:16.585Z,33.84
2023-05-05T13:02:43.227Z,33.48
2023-05-05T13:05:09.995Z,33.18
2023-05-05T13:07:49.044Z,32.51
2023-05-05T13:10:15.446Z,31.76
2023-05-05T13:12:41.973Z,31.51
2023-05-05T13:15:09.515Z,31.13
2023-05-05T13:17:36.165Z,30.99
2023-05-05T13:20:02.749Z,30.85
2023-05-05T13:22:29.200Z,30.36
2023-05-05T13:24:55.657Z,30.10
2023-05-05T13:27:22.190Z,30.07
2023-05-05T13:29:48.891Z,29.65
2023-05-05T13:32:15.540Z,29.53
2023-05-05T13:34:43.577Z,29.22
2023-05-05T13:37:10.294Z,29.09
2023-05-05T13:39:37.034Z,29.19
2023-05-05T13:42:03.718Z,29.27
2023-05-05T13:44:30.391Z,29.10
2023-05-05T13:46:57.078Z,29.01
2023-05-05T13:49:23.844Z,28.94
2023-05-05T13:51:50.762Z,28.84
2023-05-05T13:54:17.291Z,28.43
2023-05-05T13:56:43.941Z,28.14
2023-05-05T13:59:10.525Z,27.88
2023-05-05T14:01:37.197Z,27.94
2023-05-05T14:04:05.716Z,28.10
2023-05-05T14:06:33.523Z,27.84
2023-05-05T14:09:00.133Z,27.79
2023-05-05T14:11:26.669Z,27.82
2023-05-05T14:13:53.276Z,27.79
2023-05-05T14:16:19.812Z,27.85
2023-05-05T14:18:46.359Z,27.73
2023-05-05T14:21:12.886Z,27.85
2023-05-05T14:23:39.449Z,27.70
2023-05-05T14:26:06.017Z,27.82
2023-05-05T14:28:32.620Z,27.80
2023-05-05T14:30:59.223Z,27.67
2023-05-05T14:33:25.810Z,27.61
2023-05-05T14:35:52.449Z,27.59
2023-05-05T14:38:19.033Z,27.44
2023-05-05T14:40:45.617Z,27.37
2023-05-05T14:43:12.095Z,27.23
2023-05-05T14:45:38.704Z,27.02
2023-05-05T14:48:05.492Z,27.00
2023-05-05T14:50:32.039Z,26.93
2023-05-05T14:52:58.552Z,26.98
2023-05-05T14:55:25.146Z,27.04
2023-05-05T14:57:51.998Z,27.01
2023-05-05T15:00:18.926Z,27.04
2023-05-05T15:02:45.658Z,26.93
2023-05-05T15:05:12.372Z,27.03
2023-05-05T15:07:40.033Z,26.93
2023-05-05T15:10:07.635Z,27.02
2023-05-05T15:12:34.391Z,27.16
2023-05-05T15:15:01.058Z,27.12
2023-05-05T15:17:27.698Z,27.13
2023-05-05T15:19:54.262Z,27.02
2023-05-05T15:22:20.832Z,26.82
2023-05-05T15:24:47.324Z,26.52
2023-05-05T15:27:13.981Z,26.28
2023-05-05T15:29:40.493Z,26.14
2023-05-05T15:32:07.293Z,26.00
2023-05-05T15:34:34.043Z,26.03
2023-05-05T15:37:00.659Z,26.06
2023-05-05T15:39:27.136Z,26.01
2023-05-05T15:41:53.699Z,25.97
2023-05-05T15:44:20.240Z,25.98
2023-05-05T15:46:49.742Z,25.96
2023-05-05T15:49:16.989Z,25.89
2023-05-05T15:51:43.493Z,25.85
2023-05-05T15:54:10.031Z,25.80
2023-05-05T15:56:36.631Z,25.77
2023-05-05T15:59:03.348Z,25.73
2023-05-05T16:01:29.962Z,25.71
2023-05-05T16:03:57.880Z,25.63
2023-05-05T16:06:24.440Z,25.54
2023-05-05T16:08:51.758Z,25.43
2023-05-05T16:11:20.031Z,25.35
2023-05-05T16:13:48.372Z,25.24
2023-05-05T16:16:14.885Z,25.08
2023-05-05T16:18:41.404Z,24.95
2023-05-05T16:21:07.983Z,24.88
2023-05-05T16:23:34.877Z,24.78
2023-05-05T16:26:01.593Z,24.70
2023-05-05T16:28:28.248Z,24.62
2023-05-05T16:30:54.751Z,24.59
2023-05-05T16:33:21.227Z,24.59
2023-05-05T16:35:48.152Z,24.57
2023-05-05T16:38:14.829Z,24.52
2023-05-05T16:40:41.308Z,24.47
2023-05-05T16:43:07.894Z,24.43
2023-05-05T16:45:34.490Z,24.38
2023-05-05T16:48:01.135Z,24.36
2023-05-05T16:50:27.838Z,24.30
2023-05-05T16:52:54.375Z,24.30
2023-05-05T16:55:21.012Z,24.26
2023-05-05T16:57:47.959Z,24.14
2023-05-05T17:00:15.503Z,24.00
2023-05-05T17:02:42.093Z,23.89
2023-05-05T17:05:09.437Z,23.70
2023-05-05T17:07:36.237Z,23.56
2023-05-05T17:17:20.748Z,23.18
2023-05-05T17:26:55.495Z,22.87
2023-05-05T17:29:24.531Z,22.79
2023-05-05T17:31:51.205Z,22.70
2023-05-05T17:34:17.837Z,22.64
2023-05-05T17:36:44.385Z,22.59
2023-05-05T17:39:11.491Z,22.50
2023-05-05T17:41:38.018Z,22.39
2023-05-05T17:44:04.685Z,22.26
2023-05-05T17:46:31.705Z,22.13
2023-05-05T17:48:58.315Z,21.98
2023-05-05T17:51:24.933Z,21.87
2023-05-05T17:53:51.421Z,21.77
2023-05-05T17:56:17.953Z,21.68
2023-05-05T17:58:44.407Z,21.61
2023-05-05T18:01:20.591Z,21.56
2023-05-05T18:03:47.145Z,21.51
2023-05-05T18:06:13.742Z,21.43
2023-05-05T18:08:40.630Z,21.36
2023-05-05T18:11:07.150Z,21.23
2023-05-05T18:13:33.792Z,21.10
2023-05-05T18:16:04.130Z,20.99
2023-05-05T18:18:30.764Z,20.90
2023-05-05T18:21:23.380Z,20.80
2023-05-05T18:23:50.054Z,20.70
2023-05-05T18:26:42.817Z,20.61
2023-05-05T18:29:16.051Z,20.52
2023-05-05T18:31:45.419Z,20.44
2023-05-05T18:34:12.104Z,20.39
2023-05-05T18:36:38.721Z,20.28
2023-05-05T18:39:11.498Z,20.22
2023-05-05T18:41:38.160Z,20.17
2023-05-05T18:44:16.262Z,20.13
2023-05-05T18:46:47.007Z,20.06
2023-05-05T18:49:13.750Z,19.99
2023-05-05T18:51:40.367Z,19.95
2023-05-05T18:54:07.301Z,19.84
2023-05-05T18:56:33.938Z,19.70
2023-05-05T18:59:00.515Z,19.57
2023-05-05T19:01:27.074Z,19.46
2023-05-05T19:03:53.832Z,19.36
2023-05-05T19:06:20.466Z,19.24
2023-05-05T19:08:47.181Z,19.12
2023-05-05T19:11:15.125Z,18.97
2023-05-05T19:13:42.116Z,18.85
2023-05-05T19:16:08.911Z,18.75
2023-05-05T19:18:35.572Z,18.65
2023-05-05T19:21:02.463Z,18.57
2023-05-05T19:23:28.990Z,18.53
2023-05-05T19:25:58.123Z,18.45
2023-05-05T19:28:24.695Z,18.34
2023-05-05T19:30:57.508Z,18.27
2023-05-05T19:33:26.383Z,18.20
2023-05-05T19:36:17.726Z,18.16
2023-05-05T19:38:59.017Z,18.19
2023-05-05T19:41:36.146Z,18.16
2023-05-05T19:44:15.437Z,18.10
2023-05-05T19:46:49.049Z,18.01
2023-05-05T19:49:24.524Z,17.91
2023-05-05T19:52:35.661Z,17.78
2023-05-05T19:55:08.136Z,17.75
2023-05-05T19:57:38.161Z,17.77
2023-05-05T20:00:07.333Z,17.73
2023-05-05T20:02:36.734Z,17.66
2023-05-05T20:05:15.531Z,17.60
2023-05-05T20:07:42.157Z,17.55
2023-05-05T20:10:09.851Z,17.53
2023-05-05T20:12:48.917Z,17.48
2023-05-05T20:20:21.249Z,17.28
2023-05-05T20:22:49.198Z,17.16
2023-05-05T20:28:29.581Z,17.25
2023-05-05T20:37:45.037Z,15.88
2023-05-05T20:40:12.272Z,15.42
2023-05-05T20:42:38.941Z,15.20
2023-05-05T20:45:06.976Z,15.03
2023-05-05T20:47:35.050Z,14.96
2023-05-05T20:50:01.641Z,14.91
2023-05-05T20:52:28.187Z,14.85
2023-05-05T20:54:55.033Z,14.74
2023-05-05T20:57:21.491Z,14.77
2023-05-05T20:59:48.063Z,14.75
2023-05-05T21:02:14.561Z,14.79
2023-05-05T21:04:41.106Z,14.73
2023-05-05T21:07:07.686Z,14.68
2023-05-05T21:09:37.332Z,14.63
2023-05-05T21:12:04.040Z,14.58
2023-05-05T21:14:30.798Z,14.48
2023-05-05T21:16:57.399Z,14.54
2023-05-05T21:19:23.986Z,14.47
2023-05-05T21:21:51.125Z,14.51
2023-05-05T21:24:17.602Z,14.40
2023-05-05T21:26:45.210Z,14.20
2023-05-05T21:29:12.098Z,14.01
2023-05-05T21:31:38.793Z,13.81
2023-05-05T21:34:05.416Z,13.67
2023-05-05T21:36:33.747Z,13.56
2023-05-05T21:39:00.812Z,13.46
2023-05-05T21:41:27.390Z,13.39
2023-05-05T21:43:53.866Z,13.30
2023-05-05T21:46:20.435Z,13.22
2023-05-05T21:48:47.510Z,13.15
2023-05-05T21:51:14.036Z,13.10
2023-05-05T21:53:40.887Z,13.08
2023-05-05T21:56:08.514Z,13.10
2023-05-05T21:58:35.220Z,13.06
2023-05-05T22:01:02.200Z,12.96
2023-05-05T22:03:28.813Z,12.93
2023-05-05T22:05:55.345Z,12.94
2023-05-05T22:08:21.887Z,12.96
2023-05-05T22:10:48.416Z,12.96
2023-05-05T22:13:15.029Z,13.01
2023-05-05T22:15:46.774Z,12.97
2023-05-05T22:18:14.120Z,12.97
2023-05-05T22:20:40.762Z,12.97
2023-05-05T22:23:07.385Z,12.97
2023-05-05T22:25:33.966Z,13.02
2023-05-05T22:28:00.549Z,13.05
2023-05-05T22:30:27.012Z,13.07
2023-05-05T22:32:53.532Z,13.12
2023-05-05T22:35:20.167Z,13.18
2023-05-05T22:37:46.696Z,13.19
2023-05-05T22:40:13.547Z,13.15
2023-05-05T22:42:40.099Z,13.17
2023-05-05T22:45:07.344Z,13.13
2023-05-05T22:47:34.058Z,13.14
2023-05-05T22:50:00.652Z,13.15
2023-05-05T22:52:28.839Z,13.13
2023-05-05T22:54:56.068Z,13.16
2023-05-05T22:57:22.670Z,13.19
2023-05-05T22:59:49.956Z,13.21
2023-05-05T23:02:16.475Z,13.24
2023-05-05T23:04:44.820Z,13.25
2023-05-05T23:07:12.621Z,13.26
2023-05-05T23:09:39.282Z,13.28
2023-05-05T23:12:06.083Z,13.30
2023-05-05T23:14:32.606Z,13.28
2023-05-05T23:16:59.319Z,13.32
2023-05-05T23:19:26.297Z,13.31
2023-05-05T23:21:53.783Z,13.33
2023-05-05T23:24:21.536Z,13.35
2023-05-05T23:26:48.057Z,13.38
2023-05-05T23:29:14.691Z,13.35
2023-05-05T23:31:41.562Z,13.36
2023-05-05T23:34:08.484Z,13.31
2023-05-05T23:36:35.084Z,13.30
2023-05-05T23:39:01.616Z,13.30
2023-05-05T23:41:28.170Z,13.28
2023-05-05T23:43:54.716Z,13.25
2023-05-05T23:46:21.281Z,13.28
2023-05-05T23:48:48.283Z,13.30
2023-05-05T23:51:18.000Z,13.34
2023-05-05T23:53:44.630Z,13.38
2023-05-05T23:56:11.562Z,13.34
2023-05-05T23:58:38.042Z,13.29
